Time;durP1;ratioP1;P1;durP2;ratioP2;P2;SDS_P1;SDS_P2;PMS_P1;PMS_P2;Temp;Humidity;BMP_temperature;BMP_pressure;BME280_temperature;BME280_humidity;BME280_pressure;Samples;Min_cycle;Max_cycle;Signal;HPM_P1;HPM_P2
2023/05/20 00:01:45;;;;;;;29.93;6.33;;;20.80;51.30;;;;;;6213309;23;20189;-89
2023/05/20 00:04:13;;;;;;;33.50;6.77;;;20.90;51.30;;;;;;6210362;23;20559;-90
2023/05/20 00:06:40;;;;;;;39.53;7.33;;;20.80;51.20;;;;;;6210082;23;20246;-89
2023/05/20 00:09:07;;;;;;;37.50;7.07;;;20.80;51.20;;;;;;6210406;23;20168;-90
2023/05/20 00:11:37;;;;;;;32.87;6.77;;;20.70;51.20;;;;;;6213970;23;20187;-90
2023/05/20 00:14:04;;;;;;;43.40;7.80;;;20.80;51.30;;;;;;6212748;23;20203;-90
2023/05/20 00:16:32;;;;;;;30.37;6.67;;;20.70;51.20;;;;;;6218046;23;20276;-90
2023/05/20 00:18:59;;;;;;;27.20;6.17;;;20.70;51.20;;;;;;6215457;23;20168;-90
2023/05/20 00:21:28;;;;;;;31.67;6.90;;;20.70;51.20;;;;;;6215927;23;20570;-90
2023/05/20 00:23:55;;;;;;;25.93;5.63;;;20.70;51.20;;;;;;6212935;23;20606;-90
2023/05/20 00:26:23;;;;;;;20.27;5.90;;;20.70;51.20;;;;;;6217196;23;20642;-90
2023/05/20 00:28:51;;;;;;;56.13;8.70;;;20.70;51.30;;;;;;6220394;23;20164;-90
2023/05/20 00:31:21;;;;;;;41.37;7.27;;;20.70;51.30;;;;;;6220574;23;20172;-93
2023/05/20 00:33:50;;;;;;;30.77;7.13;;;20.70;51.30;;;;;;6222869;23;20192;-89
2023/05/20 00:36:24;;;;;;;35.93;6.93;;;20.60;51.20;;;;;;6220165;23;20172;-89
2023/05/20 00:38:53;;;;;;;25.67;6.33;;;20.60;51.20;;;;;;6211612;23;20203;-90
2023/05/20 00:41:20;;;;;;;19.43;5.70;;;20.60;51.20;;;;;;6211886;23;20199;-89
2023/05/20 00:43:47;;;;;;;17.13;5.77;;;20.60;51.20;;;;;;6217490;23;20216;-91
2023/05/20 00:46:18;;;;;;;22.13;6.53;;;20.60;51.20;;;;;;6223711;23;20199;-89
2023/05/20 00:48:46;;;;;;;22.40;5.90;;;20.60;51.30;;;;;;6219863;23;20184;-90
2023/05/20 00:51:14;;;;;;;25.37;5.77;;;20.60;51.30;;;;;;6214610;23;20503;-89
2023/05/20 00:53:42;;;;;;;29.83;6.97;;;20.60;51.30;;;;;;6213159;23;20203;-91
2023/05/20 00:56:11;;;;;;;22.97;6.07;;;20.50;51.20;;;;;;6211504;23;20192;-89
2023/05/20 00:58:39;;;;;;;25.33;6.60;;;20.50;51.20;;;;;;6212197;23;20219;-90
2023/05/20 01:01:08;;;;;;;29.70;6.50;;;20.50;51.20;;;;;;6212357;23;20211;-93
2023/05/20 01:03:37;;;;;;;21.93;5.90;;;20.50;51.30;;;;;;6212921;23;20211;-90
2023/05/20 01:06:05;;;;;;;24.40;6.57;;;20.50;51.20;;;;;;6214907;23;20179;-90
2023/05/20 01:08:32;;;;;;;24.60;6.30;;;20.50;51.20;;;;;;6212046;23;20208;-90
2023/05/20 01:11:05;;;;;;;34.60;7.27;;;20.50;51.20;;;;;;6213915;23;20164;-90
2023/05/20 01:13:39;;;;;;;36.53;7.00;;;20.50;51.30;;;;;;6209952;23;20176;-90
2023/05/20 01:16:08;;;;;;;30.03;7.10;;;20.50;51.20;;;;;;6210827;23;20161;-90
2023/05/20 01:18:39;;;;;;;29.93;6.57;;;20.40;51.20;;;;;;6210604;23;20164;-90
2023/05/20 01:21:09;;;;;;;29.60;6.53;;;20.50;51.30;;;;;;6209313;23;20625;-89
2023/05/20 01:23:40;;;;;;;27.97;6.60;;;20.40;51.10;;;;;;6210510;23;20191;-91
2023/05/20 01:26:09;;;;;;;27.43;6.27;;;20.40;51.20;;;;;;6210005;23;20219;-90
2023/05/20 01:28:38;;;;;;;23.93;6.07;;;20.40;51.20;;;;;;6210681;23;20198;-94
2023/05/20 01:31:08;;;;;;;31.50;6.57;;;20.40;51.20;;;;;;6211935;23;20172;-91
2023/05/20 01:33:37;;;;;;;42.03;7.70;;;20.30;51.20;;;;;;6208895;23;20209;-92
2023/05/20 01:36:05;;;;;;;27.33;6.50;;;20.30;51.20;;;;;;6210959;23;20233;-90
2023/05/20 01:38:32;;;;;;;35.53;7.20;;;20.30;51.20;;;;;;6210373;23;20169;-90
2023/05/20 01:41:03;;;;;;;29.97;6.80;;;20.40;51.20;;;;;;6209032;23;20963;-92
2023/05/20 01:43:30;;;;;;;30.40;6.87;;;20.30;51.20;;;;;;6210064;23;20168;-90
2023/05/20 01:45:57;;;;;;;46.97;7.90;;;20.30;51.20;;;;;;6210289;23;20231;-90
2023/05/20 01:48:25;;;;;;;23.93;6.07;;;20.30;51.20;;;;;;6214313;23;20647;-91
2023/05/20 01:50:52;;;;;;;46.77;7.77;;;20.30;51.20;;;;;;6211585;23;20606;-91
2023/05/20 01:53:24;;;;;;;21.13;5.37;;;20.30;51.20;;;;;;6214225;23;20556;-92
2023/05/20 01:55:56;;;;;;;44.30;7.27;;;20.20;51.80;;;;;;6212914;23;20911;-90
2023/05/20 01:58:26;;;;;;;34.70;6.87;;;20.20;51.10;;;;;;6213976;23;20621;-90
2023/05/20 02:01:00;;;;;;;21.73;5.83;;;20.20;51.20;;;;;;6211785;23;20191;-92
2023/05/20 02:03:27;;;;;;;22.23;5.60;;;20.20;51.20;;;;;;6211936;23;20172;-90
2023/05/20 02:05:55;;;;;;;29.30;6.50;;;20.20;51.10;;;;;;6216132;23;20196;-96
2023/05/20 02:08:22;;;;;;;17.53;5.47;;;20.20;51.20;;;;;;6215174;23;20184;-91
2023/05/20 02:10:49;;;;;;;20.00;5.50;;;20.20;51.20;;;;;;6218326;23;20211;-90
2023/05/20 02:13:19;;;;;;;24.50;5.57;;;20.20;51.20;;;;;;6218211;23;20169;-91
2023/05/20 02:15:47;;;;;;;35.20;6.53;;;20.10;51.10;;;;;;6216511;23;20181;-91
2023/05/20 02:18:17;;;;;;;27.23;6.03;;;20.10;51.10;;;;;;6211829;23;20235;-91
2023/05/20 02:20:44;;;;;;;32.17;6.37;;;20.10;51.20;;;;;;6215473;23;20488;-90
2023/05/20 02:23:11;;;;;;;35.73;7.17;;;20.10;51.20;;;;;;6213554;23;20242;-89
2023/05/20 02:25:40;;;;;;;30.03;6.77;;;20.10;51.20;;;;;;6210646;23;20534;-90
2023/05/20 02:28:09;;;;;;;53.97;8.63;;;20.10;51.30;;;;;;6209567;23;20279;-90
2023/05/20 02:30:36;;;;;;;34.33;6.50;;;20.10;51.30;;;;;;6211380;23;20617;-89
2023/05/20 02:33:08;;;;;;;27.87;6.07;;;20.10;51.30;;;;;;6221531;23;20659;-91
2023/05/20 02:35:36;;;;;;;29.80;6.20;;;20.00;51.20;;;;;;6222827;23;20169;-90
2023/05/20 02:38:03;;;;;;;35.30;6.30;;;20.00;51.20;;;;;;6214357;23;20172;-88
2023/05/20 02:40:30;;;;;;;29.30;6.57;;;20.00;51.20;;;;;;6210983;23;20241;-90
2023/05/20 02:42:58;;;;;;;26.07;5.80;;;20.00;51.20;;;;;;6212922;23;20192;-92
2023/05/20 02:45:25;;;;;;;31.73;6.80;;;20.00;51.20;;;;;;6213493;23;20250;-90
2023/05/20 02:47:53;;;;;;;27.50;6.23;;;20.00;51.20;;;;;;6212612;23;20196;-90
2023/05/20 02:50:21;;;;;;;20.20;5.50;;;20.00;51.20;;;;;;6214223;23;20187;-90
2023/05/20 02:52:48;;;;;;;20.73;5.53;;;20.00;51.20;;;;;;6212501;23;20636;-90
2023/05/20 02:55:16;;;;;;;21.87;5.80;;;19.90;51.10;;;;;;6211951;23;20836;-90
2023/05/20 02:57:43;;;;;;;26.93;6.37;;;19.90;51.10;;;;;;6213220;23;20164;-91
2023/05/20 03:00:12;;;;;;;32.87;6.30;;;19.90;51.10;;;;;;6212256;23;20235;-90
2023/05/20 03:02:39;;;;;;;29.83;6.13;;;19.90;51.10;;;;;;6212843;23;20165;-90
2023/05/20 03:05:07;;;;;;;29.27;6.27;;;19.90;51.10;;;;;;6211475;23;20165;-90
2023/05/20 03:07:36;;;;;;;21.90;5.40;;;19.90;51.10;;;;;;6211739;23;20203;-90
2023/05/20 03:10:05;;;;;;;46.80;7.90;;;19.90;51.10;;;;;;6210783;23;20192;-90
2023/05/20 03:12:33;;;;;;;39.80;6.93;;;19.90;51.10;;;;;;6211597;23;20176;-91
2023/05/20 03:15:00;;;;;;;38.97;7.17;;;19.80;51.00;;;;;;6211579;23;20215;-89
2023/05/20 03:17:27;;;;;;;38.73;7.10;;;19.80;51.00;;;;;;6226607;23;20169;-89
2023/05/20 03:19:55;;;;;;;36.27;7.13;;;19.80;51.00;;;;;;6225681;23;20196;-89
2023/05/20 03:22:23;;;;;;;33.43;7.00;;;19.80;51.00;;;;;;6222042;23;20206;-90
2023/05/20 03:24:52;;;;;;;33.47;6.50;;;19.80;51.10;;;;;;6210980;23;20207;-90
2023/05/20 03:27:20;;;;;;;55.43;8.33;;;19.80;51.00;;;;;;6211087;23;20180;-90
2023/05/20 03:29:47;;;;;;;23.00;5.57;;;19.80;51.00;;;;;;6212881;23;20165;-91
2023/05/20 03:32:15;;;;;;;30.13;5.70;;;19.70;51.00;;;;;;6214462;23;20485;-89
2023/05/20 03:34:42;;;;;;;22.10;5.70;;;19.80;51.10;;;;;;6214203;23;20243;-91
2023/05/20 03:37:09;;;;;;;50.50;7.73;;;19.70;51.10;;;;;;6210687;23;20679;-89
2023/05/20 03:39:36;;;;;;;41.13;7.23;;;19.70;51.10;;;;;;6210062;23;20180;-90
2023/05/20 03:42:05;;;;;;;31.83;5.83;;;19.70;51.00;;;;;;6210280;23;20187;-90
2023/05/20 03:44:32;;;;;;;27.80;6.50;;;19.70;51.10;;;;;;6210716;23;20227;-90
2023/05/20 03:46:59;;;;;;;22.33;5.87;;;19.70;51.00;;;;;;6210262;23;20263;-92
2023/05/20 03:49:26;;;;;;;28.60;6.13;;;19.70;51.10;;;;;;6213626;23;20731;-94
2023/05/20 03:51:53;;;;;;;65.57;9.13;;;19.60;51.10;;;;;;6213981;23;20675;-96
2023/05/20 03:54:20;;;;;;;22.23;6.27;;;19.60;51.00;;;;;;6213134;23;20204;-96
2023/05/20 03:56:50;;;;;;;24.50;5.60;;;19.60;51.00;;;;;;6214372;23;20222;-90
2023/05/20 03:59:21;;;;;;;27.93;5.83;;;19.60;51.10;;;;;;6215423;23;20661;-92
2023/05/20 04:01:48;;;;;;;29.17;6.03;;;19.60;51.10;;;;;;6217386;23;20172;-94
2023/05/20 04:04:17;;;;;;;25.20;6.33;;;19.60;51.10;;;;;;6212550;23;20215;-92
2023/05/20 04:06:45;;;;;;;40.37;7.20;;;19.60;51.10;;;;;;6209052;23;20168;-90
2023/05/20 04:09:12;;;;;;;43.50;7.80;;;19.50;51.00;;;;;;6213004;23;20199;-96
2023/05/20 04:11:39;;;;;;;50.83;7.83;;;19.50;51.00;;;;;;6210682;23;20200;-90
2023/05/20 04:14:06;;;;;;;52.20;8.40;;;19.50;51.00;;;;;;6212539;23;20176;-91
2023/05/20 04:16:36;;;;;;;47.53;7.60;;;19.50;51.00;;;;;;6211003;23;20171;-95
2023/05/20 04:19:03;;;;;;;26.83;6.53;;;19.50;51.60;;;;;;6212677;23;20164;-89
2023/05/20 04:21:31;;;;;;;33.27;6.63;;;19.50;51.10;;;;;;6211555;23;20267;-88
2023/05/20 04:23:58;;;;;;;36.77;6.77;;;19.50;51.10;;;;;;6210744;23;20165;-94
2023/05/20 04:26:25;;;;;;;34.23;7.17;;;19.50;51.10;;;;;;6210569;23;20195;-94
2023/05/20 04:28:57;;;;;;;41.77;7.40;;;19.40;51.00;;;;;;6211762;23;20250;-90
2023/05/20 04:31:25;;;;;;;34.10;6.73;;;19.40;51.00;;;;;;6211590;23;20194;-96
2023/05/20 04:33:53;;;;;;;40.33;7.33;;;19.40;51.10;;;;;;6210631;23;20168;-96
2023/05/20 04:36:21;;;;;;;39.50;6.77;;;19.40;51.00;;;;;;6209591;23;20621;-91
2023/05/20 04:38:48;;;;;;;35.87;6.93;;;19.40;51.00;;;;;;6210500;23;20208;-94
2023/05/20 04:41:15;;;;;;;38.47;6.87;;;19.40;51.10;;;;;;6209707;23;20179;-94
2023/05/20 04:43:42;;;;;;;37.30;6.93;;;19.40;51.00;;;;;;6209549;23;20164;-89
2023/05/20 04:46:09;;;;;;;40.10;7.10;;;19.30;51.00;;;;;;6209133;23;20197;-89
2023/05/20 04:48:36;;;;;;;34.90;6.93;;;19.30;51.00;;;;;;6208803;23;20459;-90
2023/05/20 04:51:05;;;;;;;40.03;7.43;;;19.30;51.00;;;;;;6209033;23;20208;-89
2023/05/20 04:53:32;;;;;;;31.33;6.90;;;19.30;51.00;;;;;;6210014;23;20164;-89
2023/05/20 04:55:59;;;;;;;33.87;6.70;;;19.30;51.10;;;;;;6209741;23;20242;-89
2023/05/20 04:58:28;;;;;;;34.27;6.63;;;19.30;51.00;;;;;;6210302;23;20485;-90
2023/05/20 05:00:56;;;;;;;56.60;8.47;;;19.30;51.00;;;;;;6210679;23;20172;-89
2023/05/20 05:03:23;;;;;;;50.23;8.40;;;19.30;51.00;;;;;;6210366;23;20199;-90
2023/05/20 05:05:50;;;;;;;47.40;8.00;;;19.30;51.00;;;;;;6208790;23;20746;-89
2023/05/20 05:08:18;;;;;;;34.73;6.63;;;19.30;51.10;;;;;;6210331;23;20251;-90
2023/05/20 05:10:46;;;;;;;44.33;7.93;;;19.30;51.00;;;;;;6209581;23;20203;-90
2023/05/20 05:13:12;;;;;;;45.57;7.70;;;19.20;51.00;;;;;;6209925;23;20215;-90
2023/05/20 05:15:39;;;;;;;55.60;8.70;;;19.30;51.20;;;;;;6209446;23;20524;-91
2023/05/20 05:18:07;;;;;;;46.60;7.90;;;19.20;51.00;;;;;;6208174;23;20424;-88
2023/05/20 05:20:33;;;;;;;38.53;7.03;;;19.30;51.20;;;;;;6208657;23;20327;-89
2023/05/20 05:23:00;;;;;;;38.07;7.10;;;19.30;51.20;;;;;;6208872;23;20211;-90
2023/05/20 05:25:29;;;;;;;46.73;7.77;;;19.20;51.10;;;;;;6209749;23;20257;-91
2023/05/20 05:27:56;;;;;;;52.33;8.50;;;19.20;51.10;;;;;;6208950;23;20980;-89
2023/05/20 05:30:23;;;;;;;30.47;6.63;;;19.20;51.70;;;;;;6210151;23;20171;-89
2023/05/20 05:32:50;;;;;;;37.73;7.67;;;19.20;51.10;;;;;;6209025;23;20540;-89
2023/05/20 05:35:17;;;;;;;42.07;7.57;;;19.20;51.10;;;;;;6208582;23;20621;-90
2023/05/20 05:37:44;;;;;;;46.27;7.83;;;19.20;51.10;;;;;;6210284;23;20191;-90
2023/05/20 05:40:12;;;;;;;57.63;8.77;;;19.20;51.10;;;;;;6209011;23;20222;-94
2023/05/20 05:42:40;;;;;;;52.50;8.50;;;19.20;51.20;;;;;;6209619;23;20203;-89
2023/05/20 05:45:09;;;;;;;43.67;8.17;;;19.20;51.20;;;;;;6209583;23;20204;-93
2023/05/20 05:47:36;;;;;;;36.87;7.47;;;19.20;51.30;;;;;;6209215;23;20184;-89
2023/05/20 05:50:03;;;;;;;35.33;7.20;;;19.20;51.30;;;;;;6209782;23;20188;-90
2023/05/20 05:52:30;;;;;;;36.17;7.40;;;19.20;51.30;;;;;;6209869;23;20196;-92
2023/05/20 05:54:57;;;;;;;36.63;6.90;;;19.20;51.40;;;;;;6208682;23;20254;-94
2023/05/20 05:57:24;;;;;;;49.90;7.97;;;19.20;51.40;;;;;;6209368;23;20278;-88
2023/05/20 05:59:52;;;;;;;43.70;8.03;;;19.20;51.40;;;;;;6209062;23;20200;-89
2023/05/20 06:02:19;;;;;;;55.10;8.37;;;19.20;51.40;;;;;;6208391;23;20279;-90
2023/05/20 06:04:48;;;;;;;33.43;6.97;;;19.20;51.40;;;;;;6210546;23;20279;-89
2023/05/20 06:07:15;;;;;;;57.40;8.73;;;19.20;51.40;;;;;;6211071;23;20651;-91
2023/05/20 06:09:42;;;;;;;58.33;9.20;;;19.20;51.50;;;;;;6211293;23;20214;-90
2023/05/20 06:12:09;;;;;;;58.03;8.87;;;19.20;51.50;;;;;;6211369;23;20179;-90
2023/05/20 06:14:36;;;;;;;45.20;8.37;;;19.20;51.60;;;;;;6211120;23;20164;-89
2023/05/20 06:17:05;;;;;;;54.57;8.83;;;19.20;51.60;;;;;;6210813;23;20243;-89
2023/05/20 06:19:32;;;;;;;27.50;6.70;;;19.20;51.60;;;;;;6211510;23;20172;-89
2023/05/20 06:21:59;;;;;;;30.90;6.80;;;19.20;51.60;;;;;;6211164;23;20199;-92
2023/05/20 06:24:26;;;;;;;32.00;7.07;;;19.20;52.20;;;;;;6211781;23;20609;-88
2023/05/20 06:26:53;;;;;;;33.73;7.30;;;19.20;51.60;;;;;;6211398;23;20234;-91
2023/05/20 06:29:20;;;;;;;49.43;8.37;;;19.20;51.60;;;;;;6210444;23;20299;-90
2023/05/20 06:31:47;;;;;;;40.03;7.50;;;19.30;51.70;;;;;;6210896;23;20858;-89
2023/05/20 06:34:15;;;;;;;41.23;7.63;;;19.20;51.70;;;;;;6210389;23;20195;-89
2023/05/20 06:36:42;;;;;;;36.97;7.27;;;19.20;51.70;;;;;;6210859;23;20195;-90
2023/05/20 06:39:11;;;;;;;42.57;7.93;;;19.30;51.80;;;;;;6211003;23;20164;-89
2023/05/20 06:41:38;;;;;;;31.77;7.13;;;19.30;51.80;;;;;;6211057;23;20647;-89
2023/05/20 06:44:06;;;;;;;60.23;9.03;;;19.30;51.80;;;;;;6209553;23;20199;-89
2023/05/20 06:46:33;;;;;;;58.13;8.77;;;19.30;51.90;;;;;;6211982;23;20215;-88
2023/05/20 06:49:00;;;;;;;53.30;9.10;;;19.30;51.90;;;;;;6213069;23;20740;-87
2023/05/20 06:51:29;;;;;;;57.23;9.43;;;19.30;51.80;;;;;;6215484;23;20192;-91
2023/05/20 06:53:56;;;;;;;58.80;9.27;;;19.30;51.80;;;;;;6220494;23;20294;-89
2023/05/20 06:56:23;;;;;;;60.80;9.67;;;19.30;51.80;;;;;;6212081;23;20207;-89
2023/05/20 06:58:50;;;;;;;36.30;7.27;;;19.30;51.90;;;;;;6211436;23;20200;-89
2023/05/20 07:01:17;;;;;;;34.57;7.37;;;19.30;51.90;;;;;;6211037;23;20199;-89
2023/05/20 07:03:44;;;;;;;28.20;7.13;;;19.30;51.90;;;;;;6212201;23;20199;-88
2023/05/20 07:06:11;;;;;;;37.90;7.30;;;19.40;51.90;;;;;;6210379;23;20169;-89
2023/05/20 07:08:40;;;;;;;25.43;6.53;;;19.40;51.90;;;;;;6210643;23;20271;-88
2023/05/20 07:11:07;;;;;;;28.93;6.90;;;19.40;51.90;;;;;;6211102;23;20199;-88
2023/05/20 07:13:34;;;;;;;29.83;6.73;;;19.40;51.90;;;;;;6211570;23;20169;-88
2023/05/20 07:16:01;;;;;;;51.33;8.70;;;19.40;51.90;;;;;;6209748;23;20207;-89
2023/05/20 07:18:30;;;;;;;51.83;8.37;;;19.40;52.00;;;;;;6210271;23;20251;-90
2023/05/20 07:20:58;;;;;;;57.50;9.03;;;19.40;52.00;;;;;;6210680;23;20173;-89
2023/05/20 07:23:25;;;;;;;40.10;7.80;;;19.50;52.10;;;;;;6210811;23;20230;-90
2023/05/20 07:25:53;;;;;;;40.33;7.77;;;19.40;52.00;;;;;;6209878;23;20176;-89
2023/05/20 07:28:21;;;;;;;36.23;7.23;;;19.50;52.00;;;;;;6209738;23;20169;-89
2023/05/20 07:30:49;;;;;;;45.60;8.50;;;19.50;52.00;;;;;;6208799;23;20169;-89
2023/05/20 07:33:17;;;;;;;33.80;6.83;;;19.50;52.00;;;;;;6208894;23;20180;-91
2023/05/20 07:35:44;;;;;;;38.37;7.37;;;19.50;52.00;;;;;;6209061;23;20164;-90
2023/05/20 07:38:11;;;;;;;31.50;6.77;;;19.50;52.00;;;;;;6208935;23;20560;-89
2023/05/20 07:40:39;;;;;;;42.07;8.00;;;19.50;52.00;;;;;;6209345;23;20176;-90
2023/05/20 07:43:08;;;;;;;40.47;7.33;;;19.50;52.00;;;;;;6209472;23;20165;-90
2023/05/20 07:45:36;;;;;;;36.83;7.60;;;19.60;52.10;;;;;;6209581;23;20275;-90
2023/05/20 07:48:03;;;;;;;39.17;7.13;;;19.60;52.20;;;;;;6210202;23;20636;-89
2023/05/20 07:50:30;;;;;;;77.27;10.40;;;19.60;52.10;;;;;;6208658;23;20271;-89
2023/05/20 07:52:57;;;;;;;64.43;9.27;;;19.60;52.10;;;;;;6207292;23;20165;-89
2023/05/20 07:55:24;;;;;;;30.00;6.87;;;19.60;52.10;;;;;;6208617;23;20648;-89
2023/05/20 07:57:53;;;;;;;27.93;6.77;;;19.60;52.20;;;;;;6208515;23;20203;-89
2023/05/20 08:00:22;;;;;;;26.00;6.57;;;19.60;52.10;;;;;;6209390;23;20605;-90
2023/05/20 08:02:49;;;;;;;29.97;6.33;;;19.70;52.20;;;;;;6210362;23;20642;-92
2023/05/20 08:05:16;;;;;;;34.17;7.03;;;19.70;52.20;;;;;;6211111;23;20196;-89
2023/05/20 08:07:43;;;;;;;55.23;8.63;;;19.70;52.20;;;;;;6210616;23;20164;-89
2023/05/20 08:10:10;;;;;;;26.77;6.03;;;19.70;52.20;;;;;;6210004;23;20703;-90
2023/05/20 08:12:37;;;;;;;27.13;6.87;;;19.70;52.20;;;;;;6211083;23;20172;-89
2023/05/20 08:15:05;;;;;;;32.77;6.83;;;19.80;52.30;;;;;;6210089;23;20200;-90
2023/05/20 08:17:34;;;;;;;29.97;6.17;;;19.80;52.40;;;;;;6209535;23;20605;-92
2023/05/20 08:20:01;;;;;;;30.40;6.33;;;19.80;52.40;;;;;;6210114;23;20165;-90
2023/05/20 08:22:28;;;;;;;22.80;5.80;;;19.80;52.40;;;;;;6210144;23;20563;-90
2023/05/20 08:24:55;;;;;;;33.80;6.53;;;19.80;52.40;;;;;;6210599;23;20695;-90
2023/05/20 08:27:22;;;;;;;39.53;6.87;;;19.90;52.40;;;;;;6209496;23;20176;-90
2023/05/20 08:29:49;;;;;;;19.90;5.70;;;19.90;52.40;;;;;;6210150;23;20842;-90
2023/05/20 08:32:16;;;;;;;22.83;6.17;;;19.90;52.50;;;;;;6209736;23;20188;-90
2023/05/20 08:34:44;;;;;;;30.40;6.33;;;19.90;52.50;;;;;;6209493;23;20267;-90
2023/05/20 08:37:12;;;;;;;28.60;6.53;;;20.00;52.60;;;;;;6210230;23;20176;-89
2023/05/20 08:39:39;;;;;;;48.87;8.17;;;20.00;52.50;;;;;;6210595;23;20638;-94
2023/05/20 08:42:06;;;;;;;45.03;7.60;;;20.00;52.60;;;;;;6210982;23;20191;-94
2023/05/20 08:44:34;;;;;;;32.67;6.70;;;20.00;52.60;;;;;;6211056;23;20255;-89
2023/05/20 08:47:02;;;;;;;33.50;6.30;;;20.00;52.60;;;;;;6210090;23;20184;-89
2023/05/20 08:49:29;;;;;;;41.50;7.80;;;20.10;52.70;;;;;;6209703;23;20251;-93
2023/05/20 08:51:59;;;;;;;40.00;7.67;;;20.10;52.70;;;;;;6210509;23;20601;-94
2023/05/20 08:54:36;;;;;;;35.27;7.00;;;20.10;52.70;;;;;;6210251;23;20228;-94
2023/05/20 08:57:04;;;;;;;41.47;7.13;;;20.10;52.80;;;;;;6210174;23;20852;-95
2023/05/20 08:59:31;;;;;;;44.10;7.57;;;20.20;52.80;;;;;;6210174;23;20199;-94
2023/05/20 09:01:58;;;;;;;38.60;7.10;;;20.20;52.80;;;;;;6209688;23;20224;-95
2023/05/20 09:04:26;;;;;;;30.20;6.37;;;20.20;52.80;;;;;;6209569;23;20248;-91
2023/05/20 09:06:53;;;;;;;33.80;6.90;;;20.30;52.90;;;;;;6209935;23;20160;-94
2023/05/20 09:09:22;;;;;;;39.40;7.40;;;20.30;52.90;;;;;;6211030;23;20248;-92
2023/05/20 09:11:52;;;;;;;39.10;7.20;;;20.30;52.90;;;;;;6210049;23;20266;-94
2023/05/20 09:14:19;;;;;;;31.77;6.63;;;20.30;52.90;;;;;;6210609;23;20199;-94
2023/05/20 09:16:47;;;;;;;55.20;7.87;;;20.40;53.00;;;;;;6209613;23;20537;-93
2023/05/20 09:19:14;;;;;;;32.07;6.47;;;20.40;53.00;;;;;;6210125;23;20200;-93
2023/05/20 09:21:42;;;;;;;34.20;6.63;;;20.40;53.00;;;;;;6210421;23;20161;-93
2023/05/20 09:24:09;;;;;;;42.40;7.80;;;20.50;53.00;;;;;;6209638;23;20638;-90
2023/05/20 09:26:40;;;;;;;38.00;7.07;;;20.50;53.00;;;;;;6209710;23;20196;-92
2023/05/20 09:29:07;;;;;;;40.03;7.00;;;20.60;53.80;;;;;;6208673;23;20251;-90
2023/05/20 09:31:37;;;;;;;31.03;6.27;;;20.60;53.10;;;;;;6209593;23;20251;-88
2023/05/20 09:34:04;;;;;;;59.37;9.03;;;20.60;53.10;;;;;;6208625;23;20497;-88
2023/05/20 09:36:34;;;;;;;30.33;6.20;;;20.60;53.10;;;;;;6210465;23;20240;-92
2023/05/20 09:39:04;;;;;;;43.13;7.37;;;20.70;53.20;;;;;;6209665;23;20168;-92
2023/05/20 09:41:39;;;;;;;38.20;7.00;;;20.70;53.20;;;;;;6208592;23;20543;-92
2023/05/20 09:44:06;;;;;;;40.83;7.57;;;20.70;53.30;;;;;;6209431;23;20204;-92
2023/05/20 09:46:34;;;;;;;29.93;6.50;;;20.80;53.30;;;;;;6209411;23;20184;-93
2023/05/20 09:49:02;;;;;;;37.57;6.80;;;20.80;53.30;;;;;;6209396;23;20208;-91
2023/05/20 09:51:31;;;;;;;38.10;7.33;;;20.90;53.40;;;;;;6209568;23;20196;-92
2023/05/20 09:53:58;;;;;;;40.97;7.47;;;20.90;53.40;;;;;;6209740;23;20247;-94
2023/05/20 09:56:26;;;;;;;36.17;6.87;;;20.90;53.40;;;;;;6208998;23;20201;-92
2023/05/20 09:58:58;;;;;;;34.37;7.17;;;21.00;53.40;;;;;;6210359;23;20258;-93
2023/05/20 10:01:25;;;;;;;38.53;7.27;;;21.00;53.40;;;;;;6210036;23;20489;-88
2023/05/20 10:03:53;;;;;;;36.50;6.93;;;21.00;53.40;;;;;;6209257;23;20204;-88
2023/05/20 10:06:54;;;;;;;26.13;6.67;;;21.10;53.50;;;;;;6209413;23;20571;-89
2023/05/20 10:09:42;;;;;;;26.93;6.40;;;21.10;53.60;;;;;;6141524;23;20690;-90
2023/05/20 10:12:23;;;;;;;48.17;8.23;;;21.10;53.60;;;;;;6209445;23;20219;-88
2023/05/20 10:15:01;;;;;;;36.23;7.60;;;21.20;53.60;;;;;;6210424;23;20304;-88
2023/05/20 10:17:37;;;;;;;36.53;7.20;;;21.30;53.70;;;;;;6216961;23;20680;-88
2023/05/20 10:20:08;;;;;;;40.23;7.23;;;21.30;53.70;;;;;;6213661;23;20568;-89
2023/05/20 10:22:35;;;;;;;37.63;7.57;;;21.40;53.80;;;;;;6213883;23;20176;-89
2023/05/20 10:25:06;;;;;;;42.30;7.77;;;21.40;53.80;;;;;;6209135;23;20182;-89
2023/05/20 10:27:43;;;;;;;31.17;6.87;;;21.50;53.90;;;;;;6208999;23;20638;-88
2023/05/20 10:30:18;;;;;;;39.07;7.20;;;21.50;53.90;;;;;;6210013;23;20199;-88
2023/05/20 10:32:55;;;;;;;25.80;5.73;;;21.60;53.90;;;;;;6210920;23;20668;-91
2023/05/20 10:35:25;;;;;;;33.57;6.67;;;21.60;53.90;;;;;;6209479;23;20168;-88
2023/05/20 10:37:52;;;;;;;39.80;6.83;;;21.70;53.80;;;;;;6210202;23;20183;-88
2023/05/20 10:40:21;;;;;;;33.57;6.20;;;21.80;53.90;;;;;;6208138;23;20485;-89
2023/05/20 10:42:49;;;;;;;28.00;6.27;;;21.80;53.80;;;;;;6209040;23;20210;-88
2023/05/20 10:45:27;;;;;;;31.03;6.37;;;21.80;53.80;;;;;;6208190;23;20706;-88
2023/05/20 10:47:58;;;;;;;28.40;5.93;;;21.90;53.90;;;;;;6209156;23;20216;-88
2023/05/20 10:50:29;;;;;;;35.17;6.87;;;21.90;54.30;;;;;;6208611;23;20235;-90
2023/05/20 10:53:04;;;;;;;33.80;7.20;;;22.00;53.80;;;;;;6211088;23;20215;-89
2023/05/20 10:55:37;;;;;;;30.23;6.33;;;22.00;53.80;;;;;;6210442;23;20262;-89
2023/05/20 10:58:04;;;;;;;39.87;7.07;;;22.00;53.80;;;;;;6211171;23;20547;-89
2023/05/20 11:00:35;;;;;;;22.07;5.60;;;22.10;53.80;;;;;;6210571;23;20192;-88
2023/05/20 11:03:02;;;;;;;27.13;6.13;;;22.10;53.80;;;;;;6211017;23;20635;-88
2023/05/20 11:05:30;;;;;;;20.53;5.90;;;22.10;53.80;;;;;;6210840;23;20180;-88
2023/05/20 11:08:08;;;;;;;30.77;6.53;;;22.20;53.80;;;;;;6209926;23;20168;-88
2023/05/20 11:10:35;;;;;;;35.07;6.70;;;22.20;53.80;;;;;;6210616;23;20235;-89
2023/05/20 11:13:04;;;;;;;40.63;7.13;;;22.30;53.80;;;;;;6210857;23;20259;-89
2023/05/20 11:15:34;;;;;;;33.70;6.27;;;22.30;53.80;;;;;;6210298;23;20275;-91
2023/05/20 11:18:02;;;;;;;35.27;6.80;;;22.30;53.70;;;;;;6211139;23;20545;-90
2023/05/20 11:20:33;;;;;;;36.07;6.87;;;22.30;53.70;;;;;;6210043;23;20398;-91
2023/05/20 11:23:02;;;;;;;32.70;6.27;;;22.40;53.70;;;;;;6210025;23;20488;-89
2023/05/20 11:25:29;;;;;;;43.93;7.67;;;22.40;53.80;;;;;;6210111;23;20255;-89
2023/05/20 11:27:56;;;;;;;31.63;6.40;;;22.40;53.70;;;;;;6210347;23;20560;-90
2023/05/20 11:30:23;;;;;;;37.23;6.90;;;22.50;53.70;;;;;;6210171;23;20227;-89
2023/05/20 11:33:01;;;;;;;30.90;6.53;;;22.40;53.60;;;;;;6211011;23;20244;-89
2023/05/20 11:35:31;;;;;;;33.30;6.97;;;22.50;53.80;;;;;;6211399;23;20200;-89
2023/05/20 11:38:02;;;;;;;51.67;8.17;;;22.50;53.70;;;;;;6209825;23;20168;-90
2023/05/20 11:40:31;;;;;;;37.47;6.70;;;22.50;53.70;;;;;;6211693;23;20169;-88
2023/05/20 11:42:59;;;;;;;30.13;6.23;;;22.60;53.80;;;;;;6210015;23;20609;-87
2023/05/20 11:45:27;;;;;;;39.70;7.10;;;22.60;53.70;;;;;;6209820;23;20246;-90
2023/05/20 11:48:03;;;;;;;31.07;6.20;;;22.60;53.70;;;;;;6210482;23;20189;-89
2023/05/20 11:50:35;;;;;;;50.97;8.10;;;22.60;53.70;;;;;;6210694;23;20196;-88
2023/05/20 11:53:03;;;;;;;53.83;8.53;;;22.60;53.70;;;;;;6209821;23;20167;-88
2023/05/20 11:55:32;;;;;;;34.87;6.57;;;22.60;53.70;;;;;;6209753;23;20179;-89
2023/05/20 11:58:00;;;;;;;38.37;7.27;;;22.60;53.70;;;;;;6210735;23;20166;-92
2023/05/20 12:00:27;;;;;;;31.40;6.47;;;22.70;53.70;;;;;;6210776;23;20204;-93
2023/05/20 12:02:54;;;;;;;33.70;6.63;;;22.70;53.70;;;;;;6209724;23;20175;-93
2023/05/20 12:05:23;;;;;;;30.53;6.27;;;22.70;53.70;;;;;;6210460;23;20196;-91
2023/05/20 12:07:50;;;;;;;33.00;6.27;;;22.70;53.70;;;;;;6210304;23;20493;-93
2023/05/20 12:10:17;;;;;;;38.77;7.57;;;22.80;53.80;;;;;;6209464;23;20192;-93
2023/05/20 12:12:45;;;;;;;28.17;5.87;;;22.80;53.80;;;;;;6210421;23;20184;-89
2023/05/20 12:15:12;;;;;;;31.10;6.17;;;22.80;53.70;;;;;;6210389;23;20169;-91
2023/05/20 12:17:48;;;;;;;38.27;7.03;;;22.80;53.80;;;;;;6210406;23;20577;-92
2023/05/20 12:20:16;;;;;;;39.27;7.13;;;22.80;53.80;;;;;;6210457;23;20198;-91
2023/05/20 12:22:45;;;;;;;46.07;7.57;;;22.80;53.70;;;;;;6210137;23;20169;-90
2023/05/20 12:25:14;;;;;;;52.27;7.97;;;22.80;53.70;;;;;;6209395;23;20212;-90
2023/05/20 12:27:41;;;;;;;22.13;5.33;;;22.80;53.70;;;;;;6209706;23;20165;-92
2023/05/20 12:30:09;;;;;;;53.70;8.27;;;22.90;53.80;;;;;;6208961;23;20176;-91
2023/05/20 12:32:38;;;;;;;26.43;6.27;;;23.00;53.90;;;;;;6210996;23;20172;-88
2023/05/20 12:35:06;;;;;;;54.30;8.07;;;22.90;53.80;;;;;;6209320;23;20211;-91
2023/05/20 12:37:33;;;;;;;30.97;6.00;;;22.90;53.80;;;;;;6210389;23;20165;-87
2023/05/20 12:40:02;;;;;;;35.50;6.40;;;23.00;53.80;;;;;;6209106;23;20218;-88
2023/05/20 12:42:29;;;;;;;34.93;7.07;;;23.00;53.80;;;;;;6210249;23;20195;-89